METAR Data
IDs: Format: Raw Decoded Include TAF

Data at: 2004 UTC 14 Dec 2018

KBGD 141951Z AUTO 34007KT 10SM CLR 11/M14 A3028 RMK AO2 SLP258 T01061144
KBGD 141851Z AUTO 36011KT 10SM CLR 10/M14 A3029 RMK AO2 SLP262 T01001139
KBGD 141751Z AUTO 35010KT 10SM CLR 08/M14 A3033 RMK AO2 SLP277 T00781139 10083 21050 50002
KBGD 141651Z AUTO 01010KT 10SM CLR 07/M12 A3034 RMK AO2 SLP283 T00671117
KBGD 141551Z AUTO 30007KT 10SM CLR 01/M12 A3034 RMK AO2 SLP287 T00111117
KBGD 141451Z AUTO 30008KT 10SM CLR M02/M13 A3032 RMK AO2 SLP284 T10221128 53018
KBGD 141351Z AUTO 28007KT 10SM CLR M05/M13 A3030 RMK AO2 SLP279 T10501128
KBGD 141251Z AUTO 29010KT 10SM CLR M04/M12 A3028 RMK AO2 SLP270 T10441122
KBGD 141151Z AUTO 30008KT 10SM CLR M04/M12 A3027 RMK AO2 SLP262 T10391122 10006 21039 53002
KBGD 141051Z AUTO 34008KT 10SM CLR M02/M12 A3026 RMK AO2 SLP255 T10221117
KBGD 140951Z AUTO 32007KT 10SM CLR M03/M12 A3026 RMK AO2 SLP254 T10281117
KBGD 140851Z AUTO 33007KT 10SM CLR M02/M12 A3026 RMK AO2 SLP254 T10221117 51006
KBGD 140751Z AUTO 34008KT 10SM CLR M01/M12 A3025 RMK AO2 SLP252 T10111117
KBGD 140651Z AUTO 34010G17KT 10SM CLR M01/M11 A3025 RMK AO2 SLP251 T10061111
KBGD 140551Z AUTO 35011KT 10SM CLR 00/M11 A3024 RMK AO2 SLP247 T00001111 10061 21006 400831006 51015
KBGD 140451Z AUTO 36012KT 10SM CLR 00/M11 A3024 RMK AO2 SLP247 T00001111
KBGD 140351Z AUTO 35011KT 10SM CLR 01/M11 A3022 RMK AO2 SLP241 T00111106
KBGD 140251Z AUTO 36012KT 10SM CLR 02/M11 A3019 RMK AO2 SLP230 T00221106 51021
KBGD 140151Z AUTO 36016G22KT 10SM CLR 04/M11 A3018 RMK AO2 PK WND 01027/0113 SLP222 T00391111
KBGD 140051Z AUTO 36018G23KT 10SM CLR 04/M11 A3016 RMK AO2 PK WND 36034/0004 SLP218 T00441111
KBGD 132351Z AUTO 36021G34KT 10SM CLR 06/M11 A3012 RMK AO2 PK WND 36034/2349 SLP204 T00561111 10083 20056 53018
KBGD 132251Z AUTO 36028G38KT 10SM CLR 07/M11 A3009 RMK AO2 PK WND 36041/2238 SLP191 T00721106
KBGD 132151Z AUTO 36027G39KT 10SM CLR 08/M11 A3007 RMK AO2 PK WND 01043/2057 SLP183 T00831106
KBGD 132051Z AUTO 36027G38KT 10SM CLR 08/M09 A3006 RMK AO2 PK WND 02043/2024 SLP181 T00831094 55002
KBGD 131951Z AUTO 01033G40KT 10SM CLR 07/M08 A3006 RMK AO2 PK WND 35042/1912 SLP182 T00721078
KBGD 131851Z AUTO 01028G41KT 10SM CLR 07/M07 A3006 RMK AO2 PK WND 35041/1845 SLP182 T00671072
KBGD 131751Z AUTO 01025G41KT 10SM CLR 07/M07 A3007 RMK AO2 PK WND 01043/1734 SLP180 T00671067 10067 20039 50016
KBGD 131651Z AUTO 01029G42KT 10SM OVC100 06/M07 A3007 RMK AO2 PK WND 36043/1640 SLP179 T00561067
KBGD 131551Z AUTO 01028G39KT 10SM SCT050 OVC090 04/M07 A3006 RMK AO2 PK WND 36039/1512 SLP177 T00441067
KBGD 131451Z AUTO 36027G40KT 10SM BKN048 OVC110 04/M06 A3002 RMK AO2 PK WND 36040/1444 SLP164 T00441061 51041
KBGD 131351Z AUTO 01020G32KT 10SM OVC090 04/M04 A2998 RMK AO2 PK WND 01035/1324 SLP150 T00441039
KBGD 131251Z AUTO 01019G29KT 10SM BKN050 OVC085 04/M03 A2994 RMK AO2 PK WND 02036/1205 SLP133 T00441033
KBGD 131151Z AUTO 01024G32KT 10SM OVC080 04/M02 A2989 RMK AO2 PK WND 01039/1126 SLP114 T00391022 10072 20022 51035
KBGD 131051Z AUTO 36022G32KT 10SM CLR 04/M02 A2986 RMK AO2 PK WND 36035/1023 SLP098 T00391017
KBGD 130951Z AUTO 36025G33KT 10SM CLR 04/M03 A2983 RMK AO2 PK WND 35033/0943 SLP086 T00391033
KBGD 130934Z AUTO 36018G27KT 10SM FEW021 SCT029 04/M04 A2982 RMK AO2 PK WND 01027/0925 T00391039
KBGD 130918Z AUTO 36018G23KT 10SM SCT010 SCT016 BKN021 03/M02 A2981 RMK AO2 PRESRR T00331022
KBGD 130905Z AUTO 36011G20KT 10SM BKN010 BKN017 OVC021 03/M01 A2979 RMK AO2 CIG 007V013 T00281006
KBGD 130851Z AUTO 36012G20KT 10SM OVC008 02/M01 A2978 RMK AO2 PK WND 35026/0817 CIG 004V010 PRESRR SLP071 T00221006 51051
KBGD 130847Z AUTO 35014G25KT 10SM OVC006 02/M01 A2977 RMK AO2 PK WND 35026/0817 CIG 004V010 PRESRR
KBGD 130829Z AUTO 36018G23KT 8SM BKN004 OVC010 02/00 A2974 RMK AO2 PK WND 35026/0817 T00220000
KBGD 130809Z AUTO 36019G22KT 10SM BKN009 03/M01 A2972 RMK AO2 CIG 006V014 PRESRR T00281011